sensor_id;sensor_type;location;lat;lon;timestamp;P1;durP1;ratioP1;P2;durP2;ratioP2
665;SDS011;315;48.738;9.126;2023-09-18T00:01:37;5.13;;;3.10;;
665;SDS011;315;48.738;9.126;2023-09-18T00:04:04;5.00;;;4.50;;
665;SDS011;315;48.738;9.126;2023-09-18T00:06:30;5.60;;;3.93;;
665;SDS011;315;48.738;9.126;2023-09-18T00:08:56;5.13;;;4.53;;
665;SDS011;315;48.738;9.126;2023-09-18T00:11:21;4.20;;;3.90;;
665;SDS011;315;48.738;9.126;2023-09-18T00:13:47;6.43;;;5.07;;
665;SDS011;315;48.738;9.126;2023-09-18T00:16:13;4.80;;;4.50;;
665;SDS011;315;48.738;9.126;2023-09-18T00:18:38;4.27;;;3.97;;
665;SDS011;315;48.738;9.126;2023-09-18T00:21:04;4.80;;;4.40;;
665;SDS011;315;48.738;9.126;2023-09-18T00:23:31;4.47;;;4.07;;
665;SDS011;315;48.738;9.126;2023-09-18T00:25:57;5.07;;;4.53;;
665;SDS011;315;48.738;9.126;2023-09-18T00:28:23;6.13;;;4.53;;
665;SDS011;315;48.738;9.126;2023-09-18T00:30:49;5.03;;;4.60;;
665;SDS011;315;48.738;9.126;2023-09-18T00:33:15;6.17;;;5.50;;
665;SDS011;315;48.738;9.126;2023-09-18T00:35:44;4.47;;;4.17;;
665;SDS011;315;48.738;9.126;2023-09-18T00:38:11;4.63;;;4.10;;
665;SDS011;315;48.738;9.126;2023-09-18T00:40:36;5.70;;;5.17;;
665;SDS011;315;48.738;9.126;2023-09-18T00:43:02;4.87;;;4.47;;
665;SDS011;315;48.738;9.126;2023-09-18T00:45:27;5.93;;;4.50;;
665;SDS011;315;48.738;9.126;2023-09-18T00:47:53;4.93;;;4.53;;
665;SDS011;315;48.738;9.126;2023-09-18T00:50:19;4.87;;;4.20;;
665;SDS011;315;48.738;9.126;2023-09-18T00:52:46;5.03;;;4.37;;
665;SDS011;315;48.738;9.126;2023-09-18T00:55:12;6.17;;;5.37;;
665;SDS011;315;48.738;9.126;2023-09-18T00:57:38;5.43;;;4.93;;
665;SDS011;315;48.738;9.126;2023-09-18T01:00:04;5.30;;;4.80;;
665;SDS011;315;48.738;9.126;2023-09-18T01:02:31;4.80;;;4.40;;
665;SDS011;315;48.738;9.126;2023-09-18T01:04:57;4.20;;;3.90;;
665;SDS011;315;48.738;9.126;2023-09-18T01:07:23;4.43;;;4.13;;
665;SDS011;315;48.738;9.126;2023-09-18T01:09:48;5.37;;;4.87;;
665;SDS011;315;48.738;9.126;2023-09-18T01:17:51;5.20;;;4.70;;
665;SDS011;315;48.738;9.126;2023-09-18T01:20:17;4.70;;;4.23;;
665;SDS011;315;48.738;9.126;2023-09-18T01:22:43;7.53;;;4.80;;
665;SDS011;315;48.738;9.126;2023-09-18T01:25:09;4.20;;;3.90;;
665;SDS011;315;48.738;9.126;2023-09-18T01:27:34;4.17;;;3.87;;
665;SDS011;315;48.738;9.126;2023-09-18T01:30:00;6.90;;;4.60;;
665;SDS011;315;48.738;9.126;2023-09-18T01:32:26;4.70;;;4.17;;
665;SDS011;315;48.738;9.126;2023-09-18T01:34:55;4.93;;;4.63;;
665;SDS011;315;48.738;9.126;2023-09-18T01:37:23;4.47;;;4.07;;
665;SDS011;315;48.738;9.126;2023-09-18T01:39:51;4.80;;;4.50;;
665;SDS011;315;48.738;9.126;2023-09-18T01:42:18;4.67;;;4.27;;
665;SDS011;315;48.738;9.126;2023-09-18T01:44:44;10.37;;;4.47;;
665;SDS011;315;48.738;9.126;2023-09-18T01:47:12;4.70;;;4.30;;
665;SDS011;315;48.738;9.126;2023-09-18T01:49:41;3.70;;;3.40;;
665;SDS011;315;48.738;9.126;2023-09-18T01:52:07;4.03;;;3.73;;
665;SDS011;315;48.738;9.126;2023-09-18T01:54:34;4.80;;;4.37;;
665;SDS011;315;48.738;9.126;2023-09-18T01:57:00;4.40;;;4.00;;
665;SDS011;315;48.738;9.126;2023-09-18T01:59:27;5.20;;;3.70;;
665;SDS011;315;48.738;9.126;2023-09-18T02:01:53;4.33;;;3.90;;
665;SDS011;315;48.738;9.126;2023-09-18T02:04:18;7.93;;;4.77;;
665;SDS011;315;48.738;9.126;2023-09-18T02:06:45;6.20;;;4.03;;
665;SDS011;315;48.738;9.126;2023-09-18T02:09:12;7.40;;;4.97;;
665;SDS011;315;48.738;9.126;2023-09-18T02:11:38;8.23;;;4.47;;
665;SDS011;315;48.738;9.126;2023-09-18T02:14:08;7.53;;;4.83;;
665;SDS011;315;48.738;9.126;2023-09-18T02:16:38;6.30;;;4.03;;
665;SDS011;315;48.738;9.126;2023-09-18T02:19:11;5.97;;;4.40;;
665;SDS011;315;48.738;9.126;2023-09-18T02:21:42;10.13;;;4.13;;
665;SDS011;315;48.738;9.126;2023-09-18T02:24:08;6.67;;;4.30;;
665;SDS011;315;48.738;9.126;2023-09-18T02:26:34;9.90;;;3.30;;
665;SDS011;315;48.738;9.126;2023-09-18T02:29:00;9.70;;;4.20;;
665;SDS011;315;48.738;9.126;2023-09-18T02:31:28;10.43;;;4.60;;
665;SDS011;315;48.738;9.126;2023-09-18T02:33:54;6.80;;;4.27;;
665;SDS011;315;48.738;9.126;2023-09-18T02:36:19;7.13;;;3.90;;
665;SDS011;315;48.738;9.126;2023-09-18T02:38:45;6.50;;;3.80;;
665;SDS011;315;48.738;9.126;2023-09-18T02:41:10;10.17;;;4.03;;
665;SDS011;315;48.738;9.126;2023-09-18T02:43:36;8.30;;;4.40;;
665;SDS011;315;48.738;9.126;2023-09-18T02:46:05;12.50;;;4.30;;
665;SDS011;315;48.738;9.126;2023-09-18T02:48:31;14.63;;;4.60;;
665;SDS011;315;48.738;9.126;2023-09-18T02:50:56;11.40;;;3.80;;
665;SDS011;315;48.738;9.126;2023-09-18T02:53:25;7.80;;;3.90;;
665;SDS011;315;48.738;9.126;2023-09-18T02:55:52;9.90;;;3.67;;
665;SDS011;315;48.738;9.126;2023-09-18T02:58:19;7.67;;;4.10;;
665;SDS011;315;48.738;9.126;2023-09-18T03:00:46;11.13;;;4.10;;
665;SDS011;315;48.738;9.126;2023-09-18T03:03:13;12.93;;;5.43;;
665;SDS011;315;48.738;9.126;2023-09-18T03:05:40;4.17;;;3.20;;
665;SDS011;315;48.738;9.126;2023-09-18T03:08:07;9.87;;;4.20;;
665;SDS011;315;48.738;9.126;2023-09-18T03:10:37;9.93;;;4.37;;
665;SDS011;315;48.738;9.126;2023-09-18T03:13:05;7.53;;;3.73;;
665;SDS011;315;48.738;9.126;2023-09-18T03:15:31;7.30;;;4.00;;
665;SDS011;315;48.738;9.126;2023-09-18T03:17:58;9.90;;;4.40;;
665;SDS011;315;48.738;9.126;2023-09-18T03:20:27;7.20;;;4.30;;
665;SDS011;315;48.738;9.126;2023-09-18T03:22:54;8.27;;;3.90;;
665;SDS011;315;48.738;9.126;2023-09-18T03:25:20;6.50;;;3.67;;
665;SDS011;315;48.738;9.126;2023-09-18T03:27:47;9.53;;;3.70;;
665;SDS011;315;48.738;9.126;2023-09-18T03:30:12;7.73;;;4.10;;
665;SDS011;315;48.738;9.126;2023-09-18T03:32:40;9.73;;;3.63;;
665;SDS011;315;48.738;9.126;2023-09-18T03:35:07;9.30;;;3.87;;
665;SDS011;315;48.738;9.126;2023-09-18T03:37:40;6.70;;;2.80;;
665;SDS011;315;48.738;9.126;2023-09-18T03:40:06;6.33;;;3.33;;
665;SDS011;315;48.738;9.126;2023-09-18T03:42:33;11.73;;;4.20;;
665;SDS011;315;48.738;9.126;2023-09-18T03:44:59;5.27;;;3.30;;
665;SDS011;315;48.738;9.126;2023-09-18T03:47:24;6.90;;;4.30;;
665;SDS011;315;48.738;9.126;2023-09-18T03:49:50;6.00;;;3.10;;
665;SDS011;315;48.738;9.126;2023-09-18T03:52:16;8.90;;;4.70;;
665;SDS011;315;48.738;9.126;2023-09-18T03:54:41;4.47;;;3.37;;
665;SDS011;315;48.738;9.126;2023-09-18T03:57:07;8.87;;;4.63;;
665;SDS011;315;48.738;9.126;2023-09-18T03:59:32;5.77;;;3.50;;
665;SDS011;315;48.738;9.126;2023-09-18T04:01:58;5.80;;;3.50;;
665;SDS011;315;48.738;9.126;2023-09-18T04:04:23;8.63;;;4.00;;
665;SDS011;315;48.738;9.126;2023-09-18T04:06:49;7.57;;;4.10;;
665;SDS011;315;48.738;9.126;2023-09-18T04:09:15;7.60;;;3.93;;
665;SDS011;315;48.738;9.126;2023-09-18T04:11:40;8.63;;;3.57;;
665;SDS011;315;48.738;9.126;2023-09-18T04:14:06;5.70;;;3.57;;
665;SDS011;315;48.738;9.126;2023-09-18T04:16:31;7.33;;;3.73;;
665;SDS011;315;48.738;9.126;2023-09-18T04:19:00;7.93;;;4.83;;
665;SDS011;315;48.738;9.126;2023-09-18T04:21:26;6.30;;;4.17;;
665;SDS011;315;48.738;9.126;2023-09-18T04:23:52;6.63;;;2.90;;
665;SDS011;315;48.738;9.126;2023-09-18T04:26:22;5.60;;;3.50;;
665;SDS011;315;48.738;9.126;2023-09-18T04:28:48;11.43;;;4.00;;
665;SDS011;315;48.738;9.126;2023-09-18T04:31:13;7.37;;;3.73;;
665;SDS011;315;48.738;9.126;2023-09-18T04:33:39;11.47;;;4.47;;
665;SDS011;315;48.738;9.126;2023-09-18T04:36:04;10.33;;;6.20;;
665;SDS011;315;48.738;9.126;2023-09-18T04:38:30;7.80;;;4.27;;
665;SDS011;315;48.738;9.126;2023-09-18T04:40:59;6.10;;;3.50;;
665;SDS011;315;48.738;9.126;2023-09-18T04:43:25;3.97;;;3.53;;
665;SDS011;315;48.738;9.126;2023-09-18T04:45:51;6.60;;;3.90;;
665;SDS011;315;48.738;9.126;2023-09-18T04:48:16;6.17;;;4.20;;
665;SDS011;315;48.738;9.126;2023-09-18T04:50:43;5.60;;;3.63;;
665;SDS011;315;48.738;9.126;2023-09-18T04:53:08;6.40;;;3.80;;
665;SDS011;315;48.738;9.126;2023-09-18T04:55:34;4.73;;;3.63;;
665;SDS011;315;48.738;9.126;2023-09-18T04:58:00;6.33;;;4.30;;
665;SDS011;315;48.738;9.126;2023-09-18T05:00:25;6.47;;;4.23;;
665;SDS011;315;48.738;9.126;2023-09-18T05:02:52;6.27;;;3.93;;
665;SDS011;315;48.738;9.126;2023-09-18T05:05:18;8.70;;;3.70;;
665;SDS011;315;48.738;9.126;2023-09-18T05:07:44;8.03;;;4.00;;
665;SDS011;315;48.738;9.126;2023-09-18T05:10:09;6.63;;;3.60;;
665;SDS011;315;48.738;9.126;2023-09-18T05:12:37;8.70;;;4.00;;
665;SDS011;315;48.738;9.126;2023-09-18T05:15:04;7.80;;;4.20;;
665;SDS011;315;48.738;9.126;2023-09-18T05:20:09;17.50;;;4.50;;
665;SDS011;315;48.738;9.126;2023-09-18T05:22:37;7.33;;;3.40;;
665;SDS011;315;48.738;9.126;2023-09-18T05:25:02;8.63;;;4.30;;
665;SDS011;315;48.738;9.126;2023-09-18T05:27:29;5.70;;;4.13;;
665;SDS011;315;48.738;9.126;2023-09-18T05:29:55;13.53;;;4.27;;
665;SDS011;315;48.738;9.126;2023-09-18T05:32:20;8.10;;;4.00;;
665;SDS011;315;48.738;9.126;2023-09-18T05:34:46;9.40;;;3.97;;
665;SDS011;315;48.738;9.126;2023-09-18T05:37:11;10.03;;;3.53;;
665;SDS011;315;48.738;9.126;2023-09-18T05:39:37;6.70;;;4.70;;
665;SDS011;315;48.738;9.126;2023-09-18T05:42:02;4.00;;;3.20;;
665;SDS011;315;48.738;9.126;2023-09-18T05:44:28;8.43;;;3.63;;
665;SDS011;315;48.738;9.126;2023-09-18T05:46:53;7.03;;;3.30;;
665;SDS011;315;48.738;9.126;2023-09-18T05:49:19;7.23;;;3.37;;
665;SDS011;315;48.738;9.126;2023-09-18T05:51:44;5.70;;;4.10;;
665;SDS011;315;48.738;9.126;2023-09-18T05:54:12;12.87;;;4.03;;
665;SDS011;315;48.738;9.126;2023-09-18T05:56:37;5.90;;;4.03;;
665;SDS011;315;48.738;9.126;2023-09-18T05:59:03;7.60;;;3.77;;
665;SDS011;315;48.738;9.126;2023-09-18T06:01:28;5.53;;;3.47;;
665;SDS011;315;48.738;9.126;2023-09-18T06:03:54;7.73;;;4.10;;
665;SDS011;315;48.738;9.126;2023-09-18T06:06:20;5.50;;;2.90;;
665;SDS011;315;48.738;9.126;2023-09-18T06:08:46;5.90;;;3.37;;
665;SDS011;315;48.738;9.126;2023-09-18T06:11:11;7.43;;;4.23;;
665;SDS011;315;48.738;9.126;2023-09-18T06:13:37;8.53;;;4.00;;
665;SDS011;315;48.738;9.126;2023-09-18T06:16:04;5.53;;;3.33;;
665;SDS011;315;48.738;9.126;2023-09-18T06:18:33;5.70;;;4.00;;
665;SDS011;315;48.738;9.126;2023-09-18T06:21:00;4.67;;;3.47;;
665;SDS011;315;48.738;9.126;2023-09-18T06:23:26;7.63;;;4.00;;
665;SDS011;315;48.738;9.126;2023-09-18T06:25:51;6.37;;;3.63;;
665;SDS011;315;48.738;9.126;2023-09-18T06:28:21;6.50;;;3.60;;
665;SDS011;315;48.738;9.126;2023-09-18T06:30:47;7.30;;;3.53;;
665;SDS011;315;48.738;9.126;2023-09-18T06:33:13;6.27;;;3.83;;
665;SDS011;315;48.738;9.126;2023-09-18T06:35:39;10.87;;;4.00;;
665;SDS011;315;48.738;9.126;2023-09-18T06:38:04;7.90;;;3.47;;
665;SDS011;315;48.738;9.126;2023-09-18T06:40:31;4.83;;;3.80;;
665;SDS011;315;48.738;9.126;2023-09-18T06:43:00;5.33;;;4.03;;
665;SDS011;315;48.738;9.126;2023-09-18T06:45:26;6.07;;;3.20;;
665;SDS011;315;48.738;9.126;2023-09-18T06:47:52;4.27;;;3.23;;
665;SDS011;315;48.738;9.126;2023-09-18T06:50:18;7.80;;;3.80;;
665;SDS011;315;48.738;9.126;2023-09-18T06:52:43;8.97;;;4.03;;
665;SDS011;315;48.738;9.126;2023-09-18T06:55:09;8.23;;;3.70;;
665;SDS011;315;48.738;9.126;2023-09-18T06:57:35;5.43;;;2.87;;
665;SDS011;315;48.738;9.126;2023-09-18T07:00:00;6.00;;;4.77;;
665;SDS011;315;48.738;9.126;2023-09-18T07:02:26;5.80;;;4.73;;
665;SDS011;315;48.738;9.126;2023-09-18T07:04:52;5.37;;;2.63;;
665;SDS011;315;48.738;9.126;2023-09-18T07:07:17;3.77;;;3.07;;
665;SDS011;315;48.738;9.126;2023-09-18T07:09:49;6.73;;;3.60;;
665;SDS011;315;48.738;9.126;2023-09-18T07:12:15;6.60;;;3.50;;
665;SDS011;315;48.738;9.126;2023-09-18T07:14:44;4.53;;;2.60;;
665;SDS011;315;48.738;9.126;2023-09-18T07:17:10;5.00;;;2.47;;
665;SDS011;315;48.738;9.126;2023-09-18T07:19:36;10.37;;;3.00;;
665;SDS011;315;48.738;9.126;2023-09-18T07:22:01;5.20;;;2.33;;
665;SDS011;315;48.738;9.126;2023-09-18T07:24:27;4.80;;;2.07;;
665;SDS011;315;48.738;9.126;2023-09-18T07:26:53;6.57;;;2.50;;
665;SDS011;315;48.738;9.126;2023-09-18T07:29:19;4.77;;;2.83;;
665;SDS011;315;48.738;9.126;2023-09-18T07:31:45;4.17;;;2.20;;
665;SDS011;315;48.738;9.126;2023-09-18T07:34:12;4.77;;;2.00;;
665;SDS011;315;48.738;9.126;2023-09-18T07:36:38;3.60;;;2.53;;
665;SDS011;315;48.738;9.126;2023-09-18T07:39:04;4.80;;;2.40;;
665;SDS011;315;48.738;9.126;2023-09-18T07:41:30;6.07;;;2.53;;
665;SDS011;315;48.738;9.126;2023-09-18T07:43:56;3.40;;;2.67;;
665;SDS011;315;48.738;9.126;2023-09-18T07:46:23;4.23;;;2.37;;
665;SDS011;315;48.738;9.126;2023-09-18T07:48:49;2.50;;;1.93;;
665;SDS011;315;48.738;9.126;2023-09-18T07:51:14;5.57;;;3.27;;
665;SDS011;315;48.738;9.126;2023-09-18T07:53:41;3.93;;;2.30;;
665;SDS011;315;48.738;9.126;2023-09-18T07:56:07;3.70;;;2.87;;
665;SDS011;315;48.738;9.126;2023-09-18T07:58:33;3.33;;;1.93;;
665;SDS011;315;48.738;9.126;2023-09-18T08:01:03;2.33;;;1.77;;
665;SDS011;315;48.738;9.126;2023-09-18T08:03:31;2.80;;;1.80;;
665;SDS011;315;48.738;9.126;2023-09-18T08:05:57;2.07;;;1.77;;
665;SDS011;315;48.738;9.126;2023-09-18T08:08:23;3.70;;;1.73;;
665;SDS011;315;48.738;9.126;2023-09-18T08:10:49;4.50;;;2.20;;
665;SDS011;315;48.738;9.126;2023-09-18T08:13:16;4.37;;;2.87;;
665;SDS011;315;48.738;9.126;2023-09-18T08:15:41;4.80;;;1.40;;
665;SDS011;315;48.738;9.126;2023-09-18T08:18:08;4.40;;;1.73;;
665;SDS011;315;48.738;9.126;2023-09-18T08:20:35;2.50;;;1.80;;
665;SDS011;315;48.738;9.126;2023-09-18T08:23:02;3.67;;;2.47;;
665;SDS011;315;48.738;9.126;2023-09-18T08:25:30;2.10;;;1.90;;
665;SDS011;315;48.738;9.126;2023-09-18T08:27:56;2.87;;;1.87;;
665;SDS011;315;48.738;9.126;2023-09-18T08:30:21;3.83;;;2.10;;
665;SDS011;315;48.738;9.126;2023-09-18T08:32:47;2.83;;;2.53;;
665;SDS011;315;48.738;9.126;2023-09-18T08:35:12;3.53;;;1.63;;
665;SDS011;315;48.738;9.126;2023-09-18T08:37:39;2.60;;;1.90;;
665;SDS011;315;48.738;9.126;2023-09-18T08:40:06;3.23;;;1.70;;
665;SDS011;315;48.738;9.126;2023-09-18T08:42:35;3.37;;;2.00;;
665;SDS011;315;48.738;9.126;2023-09-18T08:45:02;7.00;;;1.57;;
665;SDS011;315;48.738;9.126;2023-09-18T08:47:34;4.97;;;2.13;;
665;SDS011;315;48.738;9.126;2023-09-18T08:50:01;4.80;;;2.13;;
665;SDS011;315;48.738;9.126;2023-09-18T08:52:27;5.83;;;3.00;;
665;SDS011;315;48.738;9.126;2023-09-18T08:54:55;4.93;;;2.50;;
665;SDS011;315;48.738;9.126;2023-09-18T08:57:21;2.77;;;2.30;;
665;SDS011;315;48.738;9.126;2023-09-18T08:59:48;2.40;;;1.87;;
665;SDS011;315;48.738;9.126;2023-09-18T09:02:14;4.00;;;2.00;;
665;SDS011;315;48.738;9.126;2023-09-18T09:04:39;3.07;;;2.20;;
665;SDS011;315;48.738;9.126;2023-09-18T09:07:05;3.27;;;2.33;;
665;SDS011;315;48.738;9.126;2023-09-18T09:09:31;3.97;;;2.63;;
665;SDS011;315;48.738;9.126;2023-09-18T09:11:57;4.30;;;3.13;;
665;SDS011;315;48.738;9.126;2023-09-18T09:14:22;7.10;;;2.30;;
665;SDS011;315;48.738;9.126;2023-09-18T09:16:53;3.90;;;2.17;;
665;SDS011;315;48.738;9.126;2023-09-18T09:19:27;3.90;;;2.70;;
665;SDS011;315;48.738;9.126;2023-09-18T09:21:55;3.57;;;2.30;;
665;SDS011;315;48.738;9.126;2023-09-18T09:24:35;4.77;;;2.57;;
665;SDS011;315;48.738;9.126;2023-09-18T09:27:06;4.30;;;2.23;;
665;SDS011;315;48.738;9.126;2023-09-18T09:29:31;2.83;;;2.40;;
665;SDS011;315;48.738;9.126;2023-09-18T09:32:11;3.23;;;2.00;;
665;SDS011;315;48.738;9.126;2023-09-18T09:34:42;5.57;;;2.37;;
665;SDS011;315;48.738;9.126;2023-09-18T09:37:08;5.13;;;2.57;;
665;SDS011;315;48.738;9.126;2023-09-18T09:39:33;5.17;;;2.53;;
665;SDS011;315;48.738;9.126;2023-09-18T09:42:00;2.73;;;2.43;;
665;SDS011;315;48.738;9.126;2023-09-18T09:44:28;4.30;;;2.40;;
665;SDS011;315;48.738;9.126;2023-09-18T09:46:56;3.00;;;2.70;;
665;SDS011;315;48.738;9.126;2023-09-18T09:49:25;6.03;;;3.33;;
665;SDS011;315;48.738;9.126;2023-09-18T09:51:52;4.83;;;3.37;;
665;SDS011;315;48.738;9.126;2023-09-18T09:54:31;2.97;;;2.67;;
665;SDS011;315;48.738;9.126;2023-09-18T09:57:01;4.20;;;3.03;;
665;SDS011;315;48.738;9.126;2023-09-18T09:59:28;5.07;;;2.53;;
665;SDS011;315;48.738;9.126;2023-09-18T10:01:55;3.97;;;2.60;;
665;SDS011;315;48.738;9.126;2023-09-18T10:04:23;4.60;;;3.10;;
665;SDS011;315;48.738;9.126;2023-09-18T10:06:57;4.30;;;3.10;;
665;SDS011;315;48.738;9.126;2023-09-18T10:09:28;3.73;;;3.17;;
665;SDS011;315;48.738;9.126;2023-09-18T10:11:54;3.90;;;2.50;;
665;SDS011;315;48.738;9.126;2023-09-18T10:16:56;1.97;;;1.60;;
665;SDS011;315;48.738;9.126;2023-09-18T10:19:27;3.10;;;2.77;;
665;SDS011;315;48.738;9.126;2023-09-18T10:24:36;3.70;;;3.07;;
665;SDS011;315;48.738;9.126;2023-09-18T10:27:04;2.80;;;2.50;;
665;SDS011;315;48.738;9.126;2023-09-18T10:29:33;4.10;;;2.47;;
665;SDS011;315;48.738;9.126;2023-09-18T10:31:59;4.20;;;2.10;;
665;SDS011;315;48.738;9.126;2023-09-18T10:34:28;4.33;;;3.33;;
665;SDS011;315;48.738;9.126;2023-09-18T10:36:56;4.53;;;2.17;;
665;SDS011;315;48.738;9.126;2023-09-18T10:39:25;6.90;;;2.27;;
665;SDS011;315;48.738;9.126;2023-09-18T10:41:54;4.70;;;2.93;;
665;SDS011;315;48.738;9.126;2023-09-18T10:44:21;2.67;;;2.43;;
665;SDS011;315;48.738;9.126;2023-09-18T10:46:49;2.63;;;2.00;;
665;SDS011;315;48.738;9.126;2023-09-18T10:49:16;6.50;;;2.50;;
665;SDS011;315;48.738;9.126;2023-09-18T10:51:43;2.97;;;2.13;;
665;SDS011;315;48.738;9.126;2023-09-18T10:54:09;2.60;;;2.23;;
665;SDS011;315;48.738;9.126;2023-09-18T10:56:36;2.83;;;2.57;;
665;SDS011;315;48.738;9.126;2023-09-18T10:59:02;4.70;;;3.13;;
665;SDS011;315;48.738;9.126;2023-09-18T11:01:32;3.00;;;2.70;;
665;SDS011;315;48.738;9.126;2023-09-18T11:04:01;3.90;;;2.80;;
665;SDS011;315;48.738;9.126;2023-09-18T11:09:20;3.23;;;2.83;;
665;SDS011;315;48.738;9.126;2023-09-18T11:11:51;2.60;;;2.40;;
665;SDS011;315;48.738;9.126;2023-09-18T11:14:29;4.43;;;4.03;;
665;SDS011;315;48.738;9.126;2023-09-18T11:20:23;4.23;;;2.50;;
665;SDS011;315;48.738;9.126;2023-09-18T11:23:09;3.57;;;2.00;;
665;SDS011;315;48.738;9.126;2023-09-18T11:25:41;3.53;;;2.17;;
665;SDS011;315;48.738;9.126;2023-09-18T11:28:14;3.10;;;2.30;;
665;SDS011;315;48.738;9.126;2023-09-18T11:30:56;2.20;;;2.00;;
665;SDS011;315;48.738;9.126;2023-09-18T11:33:33;2.40;;;2.10;;
665;SDS011;315;48.738;9.126;2023-09-18T11:36:04;4.63;;;2.10;;
665;SDS011;315;48.738;9.126;2023-09-18T11:38:31;4.20;;;2.23;;
665;SDS011;315;48.738;9.126;2023-09-18T11:41:13;2.67;;;2.47;;
665;SDS011;315;48.738;9.126;2023-09-18T11:43:52;3.80;;;2.20;;
665;SDS011;315;48.738;9.126;2023-09-18T11:46:38;2.90;;;1.40;;
665;SDS011;315;48.738;9.126;2023-09-18T11:49:05;3.00;;;2.00;;
665;SDS011;315;48.738;9.126;2023-09-18T11:51:32;6.10;;;2.53;;
665;SDS011;315;48.738;9.126;2023-09-18T11:54:00;5.33;;;2.20;;
665;SDS011;315;48.738;9.126;2023-09-18T11:56:28;2.13;;;1.93;;
665;SDS011;315;48.738;9.126;2023-09-18T11:58:54;3.20;;;1.97;;
665;SDS011;315;48.738;9.126;2023-09-18T12:01:20;4.33;;;2.53;;
665;SDS011;315;48.738;9.126;2023-09-18T12:03:54;5.07;;;3.17;;
665;SDS011;315;48.738;9.126;2023-09-18T12:06:20;2.03;;;1.60;;
665;SDS011;315;48.738;9.126;2023-09-18T12:08:46;4.50;;;1.90;;
665;SDS011;315;48.738;9.126;2023-09-18T12:11:13;2.10;;;1.47;;
665;SDS011;315;48.738;9.126;2023-09-18T12:13:42;2.10;;;1.90;;
665;SDS011;315;48.738;9.126;2023-09-18T12:16:08;8.73;;;3.13;;
665;SDS011;315;48.738;9.126;2023-09-18T12:18:34;3.03;;;1.73;;
665;SDS011;315;48.738;9.126;2023-09-18T12:21:02;3.23;;;1.63;;
665;SDS011;315;48.738;9.126;2023-09-18T12:23:41;5.90;;;2.17;;
665;SDS011;315;48.738;9.126;2023-09-18T12:26:10;3.13;;;1.83;;
665;SDS011;315;48.738;9.126;2023-09-18T12:28:38;4.60;;;2.40;;
665;SDS011;315;48.738;9.126;2023-09-18T12:31:11;4.60;;;2.50;;
665;SDS011;315;48.738;9.126;2023-09-18T12:33:41;2.30;;;2.07;;
665;SDS011;315;48.738;9.126;2023-09-18T12:36:09;4.50;;;2.30;;
665;SDS011;315;48.738;9.126;2023-09-18T12:38:36;3.70;;;2.37;;
665;SDS011;315;48.738;9.126;2023-09-18T12:41:02;3.40;;;1.40;;
665;SDS011;315;48.738;9.126;2023-09-18T12:43:38;2.53;;;2.33;;
665;SDS011;315;48.738;9.126;2023-09-18T12:46:05;9.70;;;2.10;;
665;SDS011;315;48.738;9.126;2023-09-18T12:48:31;1.63;;;1.50;;
665;SDS011;315;48.738;9.126;2023-09-18T12:51:04;1.83;;;1.53;;
665;SDS011;315;48.738;9.126;2023-09-18T12:53:30;3.73;;;1.70;;
665;SDS011;315;48.738;9.126;2023-09-18T12:56:06;1.77;;;1.30;;
665;SDS011;315;48.738;9.126;2023-09-18T12:58:40;1.87;;;1.77;;
665;SDS011;315;48.738;9.126;2023-09-18T13:01:07;2.50;;;1.20;;
665;SDS011;315;48.738;9.126;2023-09-18T13:03:44;2.47;;;1.80;;
665;SDS011;315;48.738;9.126;2023-09-18T13:06:17;2.10;;;1.57;;
665;SDS011;315;48.738;9.126;2023-09-18T13:08:44;2.27;;;2.07;;
665;SDS011;315;48.738;9.126;2023-09-18T13:11:10;2.37;;;1.50;;
665;SDS011;315;48.738;9.126;2023-09-18T13:13:37;1.87;;;1.50;;
665;SDS011;315;48.738;9.126;2023-09-18T13:16:06;1.43;;;1.33;;
665;SDS011;315;48.738;9.126;2023-09-18T13:18:34;4.73;;;1.87;;
665;SDS011;315;48.738;9.126;2023-09-18T13:20:59;1.57;;;1.47;;
665;SDS011;315;48.738;9.126;2023-09-18T13:23:29;2.47;;;2.07;;
665;SDS011;315;48.738;9.126;2023-09-18T13:25:58;1.60;;;1.50;;
665;SDS011;315;48.738;9.126;2023-09-18T13:28:25;2.80;;;1.73;;
665;SDS011;315;48.738;9.126;2023-09-18T13:30:50;2.23;;;1.67;;
665;SDS011;315;48.738;9.126;2023-09-18T13:33:16;5.00;;;1.60;;
665;SDS011;315;48.738;9.126;2023-09-18T13:35:43;1.60;;;1.50;;
665;SDS011;315;48.738;9.126;2023-09-18T13:38:10;1.87;;;1.70;;
665;SDS011;315;48.738;9.126;2023-09-18T13:40:37;1.80;;;1.43;;
665;SDS011;315;48.738;9.126;2023-09-18T13:43:04;3.20;;;1.47;;
665;SDS011;315;48.738;9.126;2023-09-18T13:45:30;1.40;;;1.30;;
665;SDS011;315;48.738;9.126;2023-09-18T13:47:57;3.43;;;1.60;;
665;SDS011;315;48.738;9.126;2023-09-18T13:50:22;1.60;;;1.50;;
665;SDS011;315;48.738;9.126;2023-09-18T13:52:48;1.83;;;1.60;;
665;SDS011;315;48.738;9.126;2023-09-18T13:55:13;4.83;;;1.90;;
665;SDS011;315;48.738;9.126;2023-09-18T13:57:39;3.43;;;1.50;;
665;SDS011;315;48.738;9.126;2023-09-18T14:00:06;2.13;;;1.67;;
665;SDS011;315;48.738;9.126;2023-09-18T14:02:35;1.73;;;1.60;;
665;SDS011;315;48.738;9.126;2023-09-18T14:05:01;1.87;;;1.40;;
665;SDS011;315;48.738;9.126;2023-09-18T14:07:28;2.07;;;1.77;;
665;SDS011;315;48.738;9.126;2023-09-18T14:09:54;2.33;;;1.80;;
665;SDS011;315;48.738;9.126;2023-09-18T14:12:20;2.40;;;1.70;;
665;SDS011;315;48.738;9.126;2023-09-18T14:14:45;2.27;;;2.17;;
665;SDS011;315;48.738;9.126;2023-09-18T14:17:11;1.70;;;1.50;;
665;SDS011;315;48.738;9.126;2023-09-18T14:19:37;3.00;;;1.90;;
665;SDS011;315;48.738;9.126;2023-09-18T14:22:05;5.43;;;1.53;;
665;SDS011;315;48.738;9.126;2023-09-18T14:24:32;1.93;;;1.73;;
665;SDS011;315;48.738;9.126;2023-09-18T14:26:59;3.10;;;1.73;;
665;SDS011;315;48.738;9.126;2023-09-18T14:29:25;2.80;;;1.80;;
665;SDS011;315;48.738;9.126;2023-09-18T14:31:51;2.23;;;1.80;;
665;SDS011;315;48.738;9.126;2023-09-18T14:34:17;1.90;;;1.70;;
665;SDS011;315;48.738;9.126;2023-09-18T14:36:43;2.20;;;1.60;;
665;SDS011;315;48.738;9.126;2023-09-18T14:39:09;3.10;;;1.60;;
665;SDS011;315;48.738;9.126;2023-09-18T14:41:36;1.63;;;1.53;;
665;SDS011;315;48.738;9.126;2023-09-18T14:44:03;3.33;;;1.53;;
665;SDS011;315;48.738;9.126;2023-09-18T14:46:29;2.07;;;1.47;;
665;SDS011;315;48.738;9.126;2023-09-18T14:48:58;1.60;;;1.27;;
665;SDS011;315;48.738;9.126;2023-09-18T14:51:24;2.43;;;1.70;;
665;SDS011;315;48.738;9.126;2023-09-18T14:53:50;2.20;;;1.80;;
665;SDS011;315;48.738;9.126;2023-09-18T14:56:15;3.80;;;2.00;;
665;SDS011;315;48.738;9.126;2023-09-18T14:58:41;1.60;;;1.50;;
665;SDS011;315;48.738;9.126;2023-09-18T15:01:08;5.57;;;1.77;;
665;SDS011;315;48.738;9.126;2023-09-18T15:03:35;1.77;;;1.63;;
665;SDS011;315;48.738;9.126;2023-09-18T15:06:00;1.77;;;1.67;;
665;SDS011;315;48.738;9.126;2023-09-18T15:08:26;3.80;;;1.60;;
665;SDS011;315;48.738;9.126;2023-09-18T15:10:52;2.53;;;1.57;;
665;SDS011;315;48.738;9.126;2023-09-18T15:13:18;2.87;;;1.80;;
665;SDS011;315;48.738;9.126;2023-09-18T15:15:43;1.97;;;1.80;;
665;SDS011;315;48.738;9.126;2023-09-18T15:18:09;2.00;;;1.70;;
665;SDS011;315;48.738;9.126;2023-09-18T15:20:35;5.20;;;2.17;;
665;SDS011;315;48.738;9.126;2023-09-18T15:23:01;2.20;;;1.70;;
665;SDS011;315;48.738;9.126;2023-09-18T15:25:26;1.63;;;1.53;;
665;SDS011;315;48.738;9.126;2023-09-18T15:27:53;2.53;;;1.73;;
665;SDS011;315;48.738;9.126;2023-09-18T15:30:19;2.00;;;1.80;;
665;SDS011;315;48.738;9.126;2023-09-18T15:32:49;2.10;;;1.63;;
665;SDS011;315;48.738;9.126;2023-09-18T15:35:18;2.73;;;1.57;;
665;SDS011;315;48.738;9.126;2023-09-18T15:37:44;2.70;;;2.50;;
665;SDS011;315;48.738;9.126;2023-09-18T15:40:10;1.90;;;1.70;;
665;SDS011;315;48.738;9.126;2023-09-18T15:42:38;1.93;;;1.83;;
665;SDS011;315;48.738;9.126;2023-09-18T15:45:06;3.60;;;1.70;;
665;SDS011;315;48.738;9.126;2023-09-18T15:47:35;2.20;;;2.00;;
665;SDS011;315;48.738;9.126;2023-09-18T15:50:05;2.47;;;2.17;;
665;SDS011;315;48.738;9.126;2023-09-18T15:52:31;1.77;;;1.67;;
665;SDS011;315;48.738;9.126;2023-09-18T15:54:57;2.30;;;1.50;;
665;SDS011;315;48.738;9.126;2023-09-18T15:57:24;2.87;;;2.13;;
665;SDS011;315;48.738;9.126;2023-09-18T15:59:51;2.70;;;1.83;;
665;SDS011;315;48.738;9.126;2023-09-18T16:02:17;2.80;;;1.90;;
665;SDS011;315;48.738;9.126;2023-09-18T16:04:43;2.73;;;2.10;;